createdAt,value
2018-12-19T00:00:01.855Z,100729.20
2018-12-19T00:02:34.085Z,100720.20
2018-12-19T00:05:05.239Z,100708.20
2018-12-19T00:07:37.549Z,100703.42
2018-12-19T00:10:08.016Z,100707.49
2018-12-19T00:12:42.910Z,100701.91
2018-12-19T00:15:15.206Z,100698.45
2018-12-19T00:17:47.298Z,100691.56
2018-12-19T00:20:21.146Z,100687.39
2018-12-19T00:22:53.686Z,100690.43
2018-12-19T00:25:25.495Z,100691.67
2018-12-19T00:27:57.942Z,100695.09
2018-12-19T00:30:30.245Z,100701.30
2018-12-19T00:33:02.147Z,100692.79
2018-12-19T00:35:32.468Z,100692.80
2018-12-19T00:38:04.165Z,100698.15
2018-12-19T00:40:36.375Z,100710.38
2018-12-19T00:43:08.544Z,100710.91
2018-12-19T00:45:40.767Z,100708.41
2018-12-19T00:48:12.978Z,100708.98
2018-12-19T00:50:45.209Z,100706.59
2018-12-19T00:53:17.409Z,100714.11
2018-12-19T00:55:49.373Z,100715.17
2018-12-19T00:58:23.865Z,100713.63
2018-12-19T01:00:55.742Z,100711.22
2018-12-19T01:03:27.988Z,100709.69
2018-12-19T01:06:00.170Z,100703.72
2018-12-19T01:08:30.486Z,100705.50
2018-12-19T01:11:02.862Z,100703.39
2018-12-19T01:13:35.005Z,100708.48
2018-12-19T01:16:07.404Z,100701.78
2018-12-19T01:18:39.671Z,100700.20
2018-12-19T01:21:14.812Z,100689.73
2018-12-19T01:23:46.916Z,100688.19
2018-12-19T01:26:19.187Z,100687.73
2018-12-19T01:28:51.606Z,100689.69
2018-12-19T01:31:24.946Z,100687.14
2018-12-19T01:33:55.268Z,100672.53
2018-12-19T01:36:27.218Z,100674.16
2018-12-19T01:38:59.536Z,100669.28
2018-12-19T01:41:31.599Z,100671.63
2018-12-19T01:44:04.118Z,100670.08
2018-12-19T01:46:36.525Z,100671.88
2018-12-19T01:49:08.581Z,100676.98
2018-12-19T01:51:40.717Z,100673.18
2018-12-19T01:54:11.159Z,100672.41
2018-12-19T01:56:43.316Z,100681.48
2018-12-19T01:59:17.710Z,100672.84
2018-12-19T02:01:49.920Z,100661.00
2018-12-19T02:04:21.761Z,100654.46
2018-12-19T02:06:52.603Z,100649.27
2018-12-19T02:09:28.901Z,100643.95
2018-12-19T02:11:59.123Z,100632.33
2018-12-19T02:14:31.160Z,100639.68
2018-12-19T02:17:03.278Z,100632.98
2018-12-19T02:19:35.238Z,100636.63
2018-12-19T02:22:10.016Z,100638.45
2018-12-19T02:24:41.752Z,100640.69
2018-12-19T02:27:14.212Z,100647.69
2018-12-19T02:29:46.534Z,100645.62
2018-12-19T02:32:18.529Z,100642.98
2018-12-19T02:34:50.805Z,100641.60
2018-12-19T02:37:23.210Z,100625.78
2018-12-19T02:39:55.660Z,100620.16
2018-12-19T02:42:27.765Z,100619.11
2018-12-19T02:45:00.216Z,100619.84
2018-12-19T02:47:46.676Z,100614.83
2018-12-19T02:50:18.731Z,100618.42
2018-12-19T02:52:49.092Z,100615.35
2018-12-19T02:55:21.308Z,100608.64
2018-12-19T02:57:53.753Z,100601.59
2018-12-19T03:00:25.970Z,100595.67
2018-12-19T03:02:58.281Z,100588.23
2018-12-19T03:05:30.715Z,100588.27
2018-12-19T03:08:02.752Z,100585.55
2018-12-19T03:10:34.977Z,100586.73
2018-12-19T03:13:07.031Z,100581.94
2018-12-19T03:15:39.433Z,100572.48
2018-12-19T03:18:11.313Z,100570.89
2018-12-19T03:20:43.695Z,100566.53
2018-12-19T03:23:15.751Z,100562.97
2018-12-19T03:25:48.081Z,100556.81
2018-12-19T03:28:20.054Z,100551.19
2018-12-19T03:30:50.250Z,100551.04
2018-12-19T03:33:22.719Z,100544.30
2018-12-19T03:35:53.043Z,100541.05
2018-12-19T03:38:25.336Z,100533.11
2018-12-19T03:40:57.564Z,100544.80
2018-12-19T03:43:29.886Z,100538.58
2018-12-19T03:46:02.377Z,100537.01
2018-12-19T03:48:40.049Z,100537.78
2018-12-19T03:51:11.739Z,100537.72
2018-12-19T03:53:41.742Z,100540.38
2018-12-19T03:56:14.348Z,100540.04
2018-12-19T03:58:46.624Z,100543.25
2018-12-19T04:01:18.351Z,100527.98
2018-12-19T04:06:48.306Z,100534.58
2018-12-19T04:09:18.785Z,100532.30
2018-12-19T04:11:50.987Z,100540.09
2018-12-19T04:14:23.305Z,100544.75
2018-12-19T04:16:55.719Z,100541.78
2018-12-19T04:19:27.805Z,100535.77
2018-12-19T04:21:58.229Z,100533.01
2018-12-19T04:24:30.466Z,100531.02
2018-12-19T04:27:00.694Z,100534.91
2018-12-19T04:29:33.609Z,100534.09
2018-12-19T04:32:04.132Z,100526.45
2018-12-19T04:34:36.671Z,100534.38
2018-12-19T04:37:06.770Z,100537.34
2018-12-19T04:39:38.932Z,100536.80
2018-12-19T04:42:09.240Z,100541.34
2018-12-19T04:44:41.265Z,100545.45
2018-12-19T04:47:13.288Z,100539.49
2018-12-19T04:49:43.729Z,100531.97
2018-12-19T04:52:15.969Z,100536.07
2018-12-19T04:54:47.615Z,100534.35
2018-12-19T04:57:19.757Z,100536.88
2018-12-19T04:59:51.903Z,100531.92
2018-12-19T05:02:24.094Z,100518.56
2018-12-19T05:04:56.184Z,100530.36
2018-12-19T05:07:28.874Z,100522.63
2018-12-19T05:10:03.451Z,100521.66
2018-12-19T05:12:35.184Z,100513.47
2018-12-19T05:15:09.251Z,100508.58
2018-12-19T05:17:41.711Z,100502.97
2018-12-19T05:20:13.892Z,100502.08
2018-12-19T05:22:46.785Z,100507.97
2018-12-19T05:25:24.984Z,100498.81
2018-12-19T05:28:05.406Z,100511.37
2018-12-19T05:30:36.060Z,100512.23
2018-12-19T05:33:08.242Z,100515.96
2018-12-19T05:35:41.590Z,100504.16
2018-12-19T05:38:14.022Z,100497.55
2018-12-19T05:40:46.460Z,100498.91
2018-12-19T05:43:16.688Z,100493.95
2018-12-19T05:45:46.829Z,100501.17
2018-12-19T05:48:18.856Z,100500.27
2018-12-19T05:50:50.988Z,100490.72
2018-12-19T05:53:24.895Z,100506.40
2018-12-19T05:55:56.506Z,100506.67
2018-12-19T05:58:26.805Z,100503.16
2018-12-19T06:00:59.305Z,100491.35
2018-12-19T06:03:31.465Z,100497.73
2018-12-19T06:06:03.474Z,100501.64
2018-12-19T06:08:35.644Z,100499.61
2018-12-19T06:11:07.870Z,100497.11
2018-12-19T06:13:39.913Z,100494.41
2018-12-19T06:16:12.038Z,100496.02
2018-12-19T06:18:44.224Z,100495.14
2018-12-19T06:21:16.637Z,100491.30
2018-12-19T06:23:46.968Z,100497.86
2018-12-19T06:26:19.215Z,100501.02
2018-12-19T06:28:51.449Z,100491.20
2018-12-19T06:31:23.831Z,100490.05
2018-12-19T06:33:56.472Z,100482.93
2018-12-19T06:36:28.615Z,100494.14
2018-12-19T06:39:01.777Z,100488.99
2018-12-19T06:41:33.805Z,100488.70
2018-12-19T06:44:05.811Z,100493.90
2018-12-19T06:46:38.422Z,100500.70
2018-12-19T06:49:10.100Z,100495.28
2018-12-19T06:51:42.124Z,100485.81
2018-12-19T06:54:14.364Z,100482.70
2018-12-19T06:56:46.608Z,100489.21
2018-12-19T06:59:18.885Z,100493.28
2018-12-19T07:01:51.116Z,100507.77
2018-12-19T07:04:23.571Z,100501.30
2018-12-19T07:06:55.889Z,100510.62
2018-12-19T07:09:27.919Z,100513.23
2018-12-19T07:12:00.127Z,100511.70
2018-12-19T07:14:41.071Z,100516.05
2018-12-19T07:17:14.326Z,100531.53
2018-12-19T07:19:48.964Z,100535.50
2018-12-19T07:22:25.559Z,100527.20
2018-12-19T07:24:57.054Z,100532.51
2018-12-19T07:27:29.870Z,100534.64
2018-12-19T07:30:02.506Z,100531.84
2018-12-19T07:32:34.861Z,100523.06
2018-12-19T07:35:13.932Z,100528.49
2018-12-19T07:40:46.150Z,100509.86
2018-12-19T07:43:36.944Z,100514.95
2018-12-19T07:46:10.845Z,100509.67
2018-12-19T07:48:46.548Z,100507.98
2018-12-19T07:51:28.521Z,100501.47
2018-12-19T07:54:16.313Z,100500.69
2018-12-19T07:56:52.303Z,100496.20
2018-12-19T07:59:37.394Z,100495.89
2018-12-19T08:02:33.780Z,100501.11
2018-12-19T08:05:25.953Z,100501.17
2018-12-19T08:08:08.012Z,100500.67
2018-12-19T08:13:43.508Z,100499.02
2018-12-19T08:19:28.448Z,100498.05
2018-12-19T08:28:04.392Z,100485.40
2018-12-19T08:30:55.217Z,100485.77
2018-12-19T08:33:48.607Z,100485.90
2018-12-19T08:36:36.870Z,100486.16
2018-12-19T08:39:44.779Z,100481.84
2018-12-19T08:43:02.872Z,100486.59
2018-12-19T08:46:24.150Z,100495.33
2018-12-19T09:07:55.725Z,100510.50
2018-12-19T09:10:31.403Z,100507.14
2018-12-19T09:13:02.886Z,100511.92
2018-12-19T09:15:53.030Z,100516.84
2018-12-19T09:18:26.322Z,100508.99
2018-12-19T09:21:00.737Z,100513.17
2018-12-19T09:23:33.510Z,100513.02
2018-12-19T09:26:05.452Z,100508.47
2018-12-19T09:28:37.699Z,100515.88
2018-12-19T09:31:09.617Z,100514.58
2018-12-19T09:33:41.898Z,100506.58
2018-12-19T09:36:15.231Z,100501.09
2018-12-19T09:38:45.502Z,100506.30
2018-12-19T09:41:17.681Z,100509.28
2018-12-19T09:43:50.135Z,100505.98
2018-12-19T09:46:21.940Z,100500.31
2018-12-19T09:48:56.290Z,100493.33
2018-12-19T09:51:28.334Z,100500.41
2018-12-19T09:54:00.368Z,100491.09
2018-12-19T09:56:32.789Z,100484.79
2018-12-19T09:59:03.085Z,100479.31
2018-12-19T10:01:35.218Z,100480.25
2018-12-19T10:04:07.503Z,100492.80
2018-12-19T10:06:39.231Z,100492.94
2018-12-19T10:09:14.960Z,100478.86
2018-12-19T10:11:47.520Z,100481.93
2018-12-19T10:14:22.149Z,100477.92
2018-12-19T10:16:54.808Z,100460.45
2018-12-19T10:19:26.780Z,100468.09
2018-12-19T10:21:59.769Z,100468.71
2018-12-19T10:24:36.732Z,100472.62
2018-12-19T10:27:08.752Z,100481.30
2018-12-19T10:29:40.973Z,100481.97
2018-12-19T10:32:13.110Z,100460.23
2018-12-19T10:34:45.855Z,100458.67
2018-12-19T10:37:17.679Z,100452.30
2018-12-19T10:39:50.252Z,100455.83
2018-12-19T10:42:23.182Z,100455.54
2018-12-19T10:44:55.998Z,100461.46
2018-12-19T10:47:27.665Z,100457.84
2018-12-19T10:49:59.921Z,100447.55
2018-12-19T10:52:32.500Z,100453.20
2018-12-19T10:55:05.558Z,100453.06
2018-12-19T10:57:35.974Z,100444.27
2018-12-19T11:00:15.896Z,100437.43
2018-12-19T11:02:49.040Z,100443.63
2018-12-19T11:05:20.780Z,100450.53
2018-12-19T11:07:56.218Z,100443.94
2018-12-19T11:10:28.763Z,100434.91
2018-12-19T11:13:01.240Z,100433.14
2018-12-19T11:18:05.741Z,100428.41
2018-12-19T11:20:37.560Z,100420.66
2018-12-19T11:23:09.615Z,100420.47
2018-12-19T11:25:42.632Z,100399.08
2018-12-19T11:28:15.079Z,100396.45
2018-12-19T11:30:47.457Z,100400.39
2018-12-19T11:33:19.467Z,100397.95
2018-12-19T11:35:51.742Z,100402.17
2018-12-19T11:38:24.088Z,100406.41
2018-12-19T11:40:56.359Z,100396.47
2018-12-19T11:43:28.735Z,100392.53
2018-12-19T11:46:06.768Z,100388.42
2018-12-19T11:48:39.404Z,100384.12
2018-12-19T11:51:11.660Z,100385.89
2018-12-19T11:53:45.201Z,100378.08
2018-12-19T11:56:17.471Z,100375.76
2018-12-19T11:58:53.962Z,100374.60
2018-12-19T12:01:27.006Z,100377.22
2018-12-19T12:03:59.604Z,100379.87
2018-12-19T12:06:31.647Z,100369.38
2018-12-19T12:09:07.066Z,100373.90
2018-12-19T12:11:45.443Z,100381.95
2018-12-19T12:14:11.540Z,100376.43
2018-12-19T12:16:46.230Z,100379.70
2018-12-19T12:19:22.749Z,100383.78
2018-12-19T12:22:01.324Z,100378.14
2018-12-19T12:24:36.359Z,100387.66
2018-12-19T12:27:11.696Z,100382.13
2018-12-19T12:29:46.475Z,100385.52
2018-12-19T12:32:23.145Z,100387.00
2018-12-19T12:35:01.879Z,100383.53
2018-12-19T12:38:20.787Z,100382.59
2018-12-19T12:43:57.379Z,100389.95
2018-12-19T12:46:30.527Z,100387.64
2018-12-19T12:49:04.794Z,100385.56
2018-12-19T12:51:37.465Z,100390.58
2018-12-19T12:54:10.277Z,100384.44
2018-12-19T12:56:42.691Z,100388.77
2018-12-19T12:59:15.610Z,100383.22
2018-12-19T13:04:41.517Z,100389.17
2018-12-19T13:07:14.051Z,100382.03
2018-12-19T13:09:46.363Z,100381.78
2018-12-19T13:12:18.647Z,100380.70
2018-12-19T13:14:52.964Z,100386.36
2018-12-19T13:17:24.751Z,100378.34
2018-12-19T13:19:56.683Z,100377.73
2018-12-19T13:22:29.988Z,100381.44
2018-12-19T13:25:04.953Z,100379.76
2018-12-19T13:27:37.414Z,100382.89
2018-12-19T13:30:11.666Z,100378.73
2018-12-19T13:32:44.408Z,100378.59
2018-12-19T13:35:16.188Z,100379.70
2018-12-19T13:37:48.519Z,100386.61
2018-12-19T13:40:20.486Z,100384.62
2018-12-19T13:42:53.204Z,100384.10
2018-12-19T13:45:25.694Z,100377.84
2018-12-19T13:47:57.967Z,100387.92
2018-12-19T13:50:32.207Z,100385.00
2018-12-19T13:53:04.282Z,100387.22
2018-12-19T13:55:37.096Z,100385.98
2018-12-19T13:58:09.775Z,100386.08
2018-12-19T14:00:41.739Z,100386.50
2018-12-19T14:03:14.096Z,100381.44
2018-12-19T14:05:46.144Z,100379.08
2018-12-19T14:08:16.448Z,100373.52
2018-12-19T14:10:48.920Z,100385.67
2018-12-19T14:13:23.643Z,100378.82
2018-12-19T14:15:56.249Z,100377.20
2018-12-19T14:19:32.142Z,100381.91
2018-12-19T14:22:04.424Z,100391.09
2018-12-19T14:24:36.501Z,100389.17
2018-12-19T14:27:08.791Z,100381.31
2018-12-19T14:29:41.573Z,100390.04
2018-12-19T14:32:13.841Z,100381.31
2018-12-19T14:34:45.768Z,100388.20
2018-12-19T14:37:18.011Z,100384.89
2018-12-19T14:39:49.999Z,100387.02
2018-12-19T14:42:21.839Z,100380.88
2018-12-19T14:44:55.329Z,100381.67
2018-12-19T14:47:27.236Z,100383.41
2018-12-19T14:49:59.551Z,100379.70
2018-12-19T14:52:31.573Z,100377.09
2018-12-19T14:55:03.683Z,100378.40
2018-12-19T14:57:35.738Z,100380.28
2018-12-19T15:00:11.472Z,100374.73
2018-12-19T15:02:44.561Z,100377.17
2018-12-19T15:05:20.842Z,100380.28
2018-12-19T15:07:53.674Z,100372.03
2018-12-19T15:10:25.785Z,100374.44
2018-12-19T15:12:57.796Z,100372.65
2018-12-19T15:15:30.575Z,100374.64
2018-12-19T15:18:04.697Z,100376.48
2018-12-19T15:20:38.954Z,100363.12
2018-12-19T15:23:11.022Z,100363.91
2018-12-19T15:25:43.166Z,100365.50
2018-12-19T15:28:14.915Z,100362.43
2018-12-19T15:30:47.402Z,100355.35
2018-12-19T15:33:19.672Z,100353.50
2018-12-19T15:36:05.803Z,100349.78
2018-12-19T15:38:37.661Z,100348.27
2018-12-19T15:41:10.215Z,100344.27
2018-12-19T15:43:42.407Z,100352.03
2018-12-19T15:46:14.533Z,100346.20
2018-12-19T15:48:46.601Z,100348.64
2018-12-19T15:51:19.425Z,100343.78
2018-12-19T15:53:51.280Z,100343.41
2018-12-19T15:56:23.536Z,100335.33
2018-12-19T15:58:55.850Z,100344.80
2018-12-19T16:01:28.826Z,100343.71
2018-12-19T16:04:01.087Z,100344.66
2018-12-19T16:06:33.606Z,100336.97
2018-12-19T16:09:07.923Z,100338.28
2018-12-19T16:11:40.956Z,100329.83
2018-12-19T16:14:13.656Z,100333.42
2018-12-19T16:16:45.732Z,100336.66
2018-12-19T16:19:18.039Z,100331.57
2018-12-19T16:21:50.018Z,100332.11
2018-12-19T16:24:26.718Z,100325.66
2018-12-19T16:27:00.501Z,100317.52
2018-12-19T16:29:33.192Z,100319.03
2018-12-19T16:32:05.037Z,100320.88
2018-12-19T16:34:35.144Z,100328.50
2018-12-19T16:37:12.676Z,100319.80
2018-12-19T16:39:45.161Z,100315.02
2018-12-19T16:42:19.728Z,100320.73
2018-12-19T16:44:51.884Z,100317.35
2018-12-19T16:47:28.398Z,100321.04
2018-12-19T16:50:00.951Z,100328.64
2018-12-19T16:55:26.900Z,100322.33
2018-12-19T16:57:59.007Z,100321.48
2018-12-19T17:00:31.448Z,100320.66
2018-12-19T17:03:03.273Z,100320.66
2018-12-19T17:05:35.733Z,100318.86
2018-12-19T17:08:07.793Z,100308.39
2018-12-19T17:10:39.904Z,100308.05
2018-12-19T17:13:12.156Z,100315.74
2018-12-19T17:15:44.431Z,100320.61
2018-12-19T17:18:17.251Z,100309.33
2018-12-19T17:20:49.309Z,100306.11
2018-12-19T17:23:21.705Z,100308.50
2018-12-19T17:25:53.804Z,100311.86
2018-12-19T17:28:26.191Z,100320.67
2018-12-19T17:30:58.194Z,100330.09
2018-12-19T17:33:30.628Z,100336.37
2018-12-19T17:36:03.155Z,100326.41
2018-12-19T17:38:35.269Z,100317.47
2018-12-19T17:41:07.327Z,100321.66
2018-12-19T17:43:39.529Z,100329.77
2018-12-19T17:46:12.060Z,100326.58
2018-12-19T17:48:46.408Z,100319.27
2018-12-19T17:51:18.356Z,100313.98
2018-12-19T17:53:50.588Z,100309.56
2018-12-19T17:56:22.596Z,100310.11
2018-12-19T17:58:54.873Z,100303.79
2018-12-19T18:01:28.596Z,100309.70
2018-12-19T18:04:00.508Z,100310.33
2018-12-19T18:06:32.563Z,100309.62
2018-12-19T18:11:58.836Z,100312.38
2018-12-19T18:14:29.344Z,100307.31
2018-12-19T18:17:01.496Z,100304.80
2018-12-19T18:19:33.336Z,100299.78
2018-12-19T18:22:05.689Z,100299.02
2018-12-19T18:24:35.676Z,100300.88
2018-12-19T18:27:08.384Z,100305.52
2018-12-19T18:29:40.112Z,100309.67
2018-12-19T18:32:12.576Z,100312.23
2018-12-19T18:34:44.561Z,100308.59
2018-12-19T18:37:19.407Z,100320.23
2018-12-19T18:39:52.181Z,100319.97
2018-12-19T18:42:25.076Z,100319.80
2018-12-19T18:44:59.700Z,100320.25
2018-12-19T18:47:41.736Z,100317.22
2018-12-19T18:53:01.582Z,100315.64
2018-12-19T18:55:36.188Z,100322.09
2018-12-19T18:58:09.335Z,100314.83
2018-12-19T19:00:43.866Z,100320.48
2018-12-19T19:03:16.252Z,100323.50
2018-12-19T19:05:48.377Z,100328.29
2018-12-19T19:08:20.524Z,100327.16
2018-12-19T19:10:53.027Z,100323.27
2018-12-19T19:13:24.930Z,100314.83
2018-12-19T19:15:57.005Z,100319.80
2018-12-19T19:18:29.391Z,100325.30
2018-12-19T19:21:01.764Z,100322.91
2018-12-19T19:23:36.125Z,100314.47
2018-12-19T19:29:02.023Z,100306.02
2018-12-19T19:31:34.367Z,100309.95
2018-12-19T19:34:06.368Z,100312.93
2018-12-19T19:36:39.476Z,100319.52
2018-12-19T19:39:09.981Z,100309.45
2018-12-19T19:41:41.886Z,100310.77
2018-12-19T19:44:14.038Z,100312.80
2018-12-19T19:46:46.489Z,100314.28
2018-12-19T19:49:18.751Z,100317.67
2018-12-19T19:51:51.123Z,100327.74
2018-12-19T19:54:23.370Z,100322.88
2018-12-19T19:56:55.836Z,100328.09
2018-12-19T19:59:28.196Z,100317.05
2018-12-19T20:02:00.413Z,100315.50
2018-12-19T20:04:32.552Z,100315.00
2018-12-19T20:07:05.133Z,100305.30
2018-12-19T20:09:37.520Z,100308.23
2018-12-19T20:12:09.800Z,100308.77
2018-12-19T20:14:42.116Z,100309.41
2018-12-19T20:17:18.088Z,100309.67
2018-12-19T20:19:50.525Z,100305.83
2018-12-19T20:22:23.161Z,100308.41
2018-12-19T20:24:55.307Z,100301.81
2018-12-19T20:27:30.536Z,100302.05
2018-12-19T20:30:02.585Z,100304.48
2018-12-19T20:32:34.719Z,100306.88
2018-12-19T20:35:09.542Z,100306.51
2018-12-19T20:37:41.281Z,100307.05
2018-12-19T20:40:19.324Z,100301.27
2018-12-19T20:45:46.299Z,100299.02
2018-12-19T20:48:19.842Z,100299.20
2018-12-19T20:50:54.120Z,100298.66
2018-12-19T20:53:26.326Z,100294.33
2018-12-19T20:56:03.845Z,100291.66
2018-12-19T20:58:36.864Z,100295.13
2018-12-19T21:01:09.870Z,100290.98
2018-12-19T21:03:46.553Z,100286.01
2018-12-19T21:06:18.432Z,100287.05
2018-12-19T21:08:48.905Z,100289.03
2018-12-19T21:11:21.447Z,100283.88
2018-12-19T21:13:53.615Z,100277.70
2018-12-19T21:18:34.645Z,100272.91
2018-12-19T21:21:07.277Z,100270.13
2018-12-19T21:23:42.687Z,100272.70
2018-12-19T21:26:17.154Z,100270.80
2018-12-19T21:28:49.097Z,100279.02
2018-12-19T21:31:26.028Z,100267.97
2018-12-19T21:34:10.236Z,100277.70
2018-12-19T21:36:53.365Z,100276.55
2018-12-19T21:39:37.247Z,100270.94
2018-12-19T21:42:15.139Z,100267.37
2018-12-19T21:44:48.665Z,100266.25
2018-12-19T21:47:23.035Z,100273.16
2018-12-19T21:49:54.977Z,100268.78
2018-12-19T21:52:27.226Z,100263.04
2018-12-19T21:54:59.565Z,100264.80
2018-12-19T21:57:37.271Z,100266.11
2018-12-19T22:03:07.955Z,100274.00
2018-12-19T22:05:40.894Z,100287.86
2018-12-19T22:08:13.098Z,100281.44
2018-12-19T22:10:45.743Z,100283.11
2018-12-19T22:13:18.718Z,100283.25
2018-12-19T22:15:52.184Z,100292.73
2018-12-19T22:18:30.463Z,100292.33
2018-12-19T22:21:03.009Z,100290.88
2018-12-19T22:23:35.588Z,100291.27
2018-12-19T22:26:07.910Z,100292.50
2018-12-19T22:28:45.128Z,100293.21
2018-12-19T22:31:16.976Z,100289.42
2018-12-19T22:33:48.975Z,100284.82
2018-12-19T22:36:19.851Z,100283.97
2018-12-19T22:38:51.891Z,100280.67
2018-12-19T22:41:23.766Z,100279.72
2018-12-19T22:43:57.233Z,100274.49
2018-12-19T22:46:29.097Z,100275.48
2018-12-19T22:49:00.980Z,100277.11
2018-12-19T22:51:35.465Z,100281.20
2018-12-19T22:54:10.136Z,100286.08
2018-12-19T22:56:43.165Z,100289.42
2018-12-19T22:59:16.698Z,100290.14
2018-12-19T23:01:53.532Z,100287.58
2018-12-19T23:04:25.799Z,100279.90
2018-12-19T23:06:57.525Z,100285.55
2018-12-19T23:09:32.237Z,100284.47
2018-12-19T23:12:04.179Z,100288.85
2018-12-19T23:14:38.628Z,100287.03
2018-12-19T23:17:28.226Z,100286.67
2018-12-19T23:20:02.863Z,100285.36
2018-12-19T23:22:34.783Z,100288.12
2018-12-19T23:25:07.941Z,100280.49
2018-12-19T23:27:40.444Z,100280.67
2018-12-19T23:30:14.056Z,100289.28
2018-12-19T23:32:47.009Z,100284.19
2018-12-19T23:35:20.875Z,100288.00
2018-12-19T23:37:53.430Z,100284.77
2018-12-19T23:40:25.659Z,100286.38
2018-12-19T23:42:58.742Z,100281.16
2018-12-19T23:45:30.768Z,100272.22
2018-12-19T23:48:03.223Z,100273.08
2018-12-19T23:50:34.922Z,100276.56
2018-12-19T23:53:07.311Z,100272.81
2018-12-19T23:55:39.932Z,100280.52
2018-12-19T23:58:12.343Z,100272.19
